createdAt,value
2018-05-16T00:00:40.758Z,19.90
2018-05-16T00:03:08.496Z,19.90
2018-05-16T00:05:36.236Z,19.90
2018-05-16T00:08:04.020Z,19.90
2018-05-16T00:10:31.767Z,19.90
2018-05-16T00:12:59.517Z,19.90
2018-05-16T00:15:27.257Z,19.90
2018-05-16T00:17:54.981Z,19.90
2018-05-16T00:20:23.489Z,19.90
2018-05-16T00:22:51.216Z,19.90
2018-05-16T00:25:19.737Z,19.80
2018-05-16T00:27:47.464Z,19.80
2018-05-16T00:30:15.201Z,19.80
2018-05-16T00:32:42.948Z,19.80
2018-05-16T00:35:10.725Z,19.70
2018-05-16T00:37:38.472Z,19.70
2018-05-16T00:40:06.233Z,19.70
2018-05-16T00:42:33.968Z,19.70
2018-05-16T00:45:02.456Z,19.70
2018-05-16T00:47:30.176Z,19.60
2018-05-16T00:49:57.926Z,19.60
2018-05-16T00:52:25.684Z,19.70
2018-05-16T00:54:53.437Z,19.70
2018-05-16T00:57:21.160Z,19.60
2018-05-16T00:59:49.658Z,19.60
2018-05-16T01:02:17.417Z,19.60
2018-05-16T01:04:45.172Z,19.60
2018-05-16T01:07:13.701Z,19.60
2018-05-16T01:09:41.433Z,19.60
2018-05-16T01:12:09.186Z,19.60
2018-05-16T01:14:37.709Z,19.60
2018-05-16T01:17:05.504Z,19.60
2018-05-16T01:19:34.089Z,19.50
2018-05-16T01:22:01.833Z,19.50
2018-05-16T01:24:29.574Z,19.40
2018-05-16T01:26:57.312Z,19.50
2018-05-16T01:29:25.077Z,19.40
2018-05-16T01:31:52.808Z,19.40
2018-05-16T01:34:21.341Z,19.40
2018-05-16T01:36:49.102Z,19.40
2018-05-16T01:39:17.609Z,19.40
2018-05-16T01:41:45.360Z,19.30
2018-05-16T01:44:13.189Z,19.40
2018-05-16T01:46:40.944Z,19.40
2018-05-16T01:49:16.262Z,19.30
2018-05-16T01:51:43.994Z,19.30
2018-05-16T01:54:11.726Z,19.30
2018-05-16T01:56:39.469Z,19.30
2018-05-16T01:59:08.027Z,19.30
2018-05-16T02:01:35.787Z,19.30
2018-05-16T02:04:03.587Z,19.20
2018-05-16T02:06:32.088Z,19.20
2018-05-16T02:08:59.825Z,19.20
2018-05-16T02:11:28.424Z,19.20
2018-05-16T02:13:56.157Z,19.20
2018-05-16T02:16:23.924Z,19.20
2018-05-16T02:18:51.675Z,19.20
2018-05-16T02:21:19.401Z,19.20
2018-05-16T02:23:47.133Z,19.20
2018-05-16T02:26:15.705Z,19.20
2018-05-16T02:28:44.250Z,19.20
2018-05-16T02:31:11.981Z,19.20
2018-05-16T02:33:39.713Z,19.20
2018-05-16T02:36:08.213Z,19.10
2018-05-16T02:38:35.961Z,19.10
2018-05-16T02:41:04.768Z,19.10
2018-05-16T02:43:32.501Z,19.10
2018-05-16T02:46:00.275Z,19.10
2018-05-16T02:48:29.652Z,19.10
2018-05-16T02:50:57.399Z,19.00
2018-05-16T02:53:25.197Z,19.00
2018-05-16T02:55:52.946Z,19.10
2018-05-16T02:58:20.677Z,19.10
2018-05-16T03:00:48.405Z,19.00
2018-05-16T03:03:16.900Z,19.00
2018-05-16T03:05:44.625Z,19.00
2018-05-16T03:08:12.355Z,19.00
2018-05-16T03:10:40.072Z,19.00
2018-05-16T03:13:09.057Z,19.00
2018-05-16T03:15:37.660Z,19.00
2018-05-16T03:18:05.416Z,19.00
2018-05-16T03:20:34.030Z,19.00
2018-05-16T03:23:01.825Z,19.00
2018-05-16T03:25:29.568Z,19.00
2018-05-16T03:27:57.341Z,19.00
2018-05-16T03:30:25.098Z,19.00
2018-05-16T03:32:52.852Z,19.00
2018-05-16T03:35:20.619Z,19.00
2018-05-16T03:37:48.397Z,19.00
2018-05-16T03:40:16.156Z,19.00
2018-05-16T03:42:43.913Z,19.00
2018-05-16T03:45:11.676Z,19.00
2018-05-16T03:47:39.481Z,19.00
2018-05-16T03:50:07.252Z,19.00
2018-05-16T03:52:35.019Z,18.90
2018-05-16T03:55:03.593Z,18.90
2018-05-16T03:57:43.096Z,18.90
2018-05-16T04:00:22.779Z,18.90
2018-05-16T04:03:03.096Z,18.90
2018-05-16T04:05:30.855Z,18.90
2018-05-16T04:07:58.638Z,18.90
2018-05-16T04:10:26.388Z,18.80
2018-05-16T04:12:54.955Z,18.80
2018-05-16T04:15:22.744Z,18.80
2018-05-16T04:17:50.504Z,18.80
2018-05-16T04:20:18.276Z,18.80
2018-05-16T04:22:46.037Z,18.80
2018-05-16T04:25:13.792Z,18.80
2018-05-16T04:27:41.546Z,18.80
2018-05-16T04:30:09.295Z,18.80
2018-05-16T04:32:37.138Z,18.80
2018-05-16T04:35:04.857Z,18.80
2018-05-16T04:37:32.604Z,18.80
2018-05-16T04:40:00.368Z,18.70
2018-05-16T04:42:28.113Z,18.70
2018-05-16T04:44:55.880Z,18.70
2018-05-16T04:47:23.625Z,18.70
2018-05-16T04:49:52.151Z,18.70
2018-05-16T04:52:19.952Z,18.60
2018-05-16T04:54:47.706Z,18.70
2018-05-16T04:57:15.458Z,18.70
2018-05-16T04:59:43.219Z,18.70
2018-05-16T05:02:11.040Z,18.70
2018-05-16T05:04:38.792Z,18.60
2018-05-16T05:07:07.426Z,18.60
2018-05-16T05:09:35.177Z,18.60
2018-05-16T05:12:03.002Z,18.60
2018-05-16T05:14:31.538Z,18.60
2018-05-16T05:17:00.255Z,18.60
2018-05-16T05:19:29.403Z,18.60
2018-05-16T05:21:57.197Z,18.50
2018-05-16T05:24:24.991Z,18.60
2018-05-16T05:26:53.531Z,18.60
2018-05-16T05:29:21.296Z,18.60
2018-05-16T05:31:49.224Z,18.60
2018-05-16T05:34:17.028Z,18.60
2018-05-16T05:36:44.787Z,18.60
2018-05-16T05:39:12.545Z,18.60
2018-05-16T05:41:40.326Z,18.60
2018-05-16T05:44:08.085Z,18.60
2018-05-16T05:46:35.836Z,18.60
2018-05-16T05:49:03.636Z,18.70
2018-05-16T05:51:31.416Z,18.70
2018-05-16T05:54:00.415Z,18.70
2018-05-16T05:56:28.996Z,18.70
2018-05-16T05:58:57.798Z,18.80
2018-05-16T06:01:25.568Z,18.70
2018-05-16T06:03:53.477Z,18.70
2018-05-16T06:06:21.251Z,18.80
2018-05-16T06:08:50.321Z,18.80
2018-05-16T06:11:18.089Z,18.80
2018-05-16T06:13:45.866Z,18.80
2018-05-16T06:16:13.635Z,18.80
2018-05-16T06:18:41.436Z,18.80
2018-05-16T06:21:09.976Z,18.90
2018-05-16T06:23:37.741Z,18.90
2018-05-16T06:26:05.516Z,18.90
2018-05-16T06:28:33.272Z,18.90
2018-05-16T06:31:01.029Z,18.90
2018-05-16T06:33:28.812Z,19.00
2018-05-16T06:35:56.580Z,19.00
2018-05-16T06:38:24.361Z,19.00
2018-05-16T06:40:52.934Z,19.10
2018-05-16T06:43:21.463Z,19.10
2018-05-16T06:45:49.267Z,19.10
2018-05-16T06:48:17.082Z,19.10
2018-05-16T06:50:44.877Z,19.10
2018-05-16T06:53:12.654Z,19.10
2018-05-16T06:55:40.424Z,19.10
2018-05-16T06:58:08.517Z,19.20
2018-05-16T07:00:36.323Z,19.20
2018-05-16T07:03:04.144Z,19.20
2018-05-16T07:05:32.732Z,19.30
2018-05-16T07:08:01.238Z,19.30
2018-05-16T07:10:28.978Z,19.30
2018-05-16T07:12:57.478Z,19.30
2018-05-16T07:15:25.229Z,19.30
2018-05-16T07:17:53.768Z,19.40
2018-05-16T07:20:22.314Z,19.50
2018-05-16T07:22:50.114Z,19.50
2018-05-16T07:25:17.869Z,19.50
2018-05-16T07:27:45.598Z,19.50
2018-05-16T07:30:13.345Z,19.60
2018-05-16T07:32:41.866Z,19.60
2018-05-16T07:35:09.589Z,19.60
2018-05-16T07:37:38.117Z,19.70
2018-05-16T07:40:05.869Z,19.60
2018-05-16T07:42:33.629Z,19.70
2018-05-16T07:45:01.364Z,19.70
2018-05-16T07:47:29.866Z,19.80
2018-05-16T07:49:57.645Z,19.80
2018-05-16T07:52:25.375Z,19.80
2018-05-16T07:54:53.996Z,19.90
2018-05-16T07:57:21.721Z,19.90
2018-05-16T07:59:50.248Z,20.00
2018-05-16T08:02:17.990Z,20.00
2018-05-16T08:04:45.730Z,20.10
2018-05-16T08:07:13.524Z,20.10
2018-05-16T08:09:41.261Z,20.20
2018-05-16T08:12:09.034Z,20.30
2018-05-16T08:14:36.845Z,20.30
2018-05-16T08:17:04.600Z,20.40
2018-05-16T08:19:32.315Z,20.40
2018-05-16T08:22:00.827Z,20.60
2018-05-16T08:24:28.568Z,20.60
2018-05-16T08:26:57.081Z,20.70
2018-05-16T08:29:24.876Z,20.70
2018-05-16T08:31:52.611Z,20.70
2018-05-16T08:34:20.366Z,20.80
2018-05-16T08:36:48.085Z,20.90
2018-05-16T08:39:15.854Z,21.00
2018-05-16T08:41:44.373Z,21.20
2018-05-16T08:44:12.154Z,21.20
2018-05-16T08:46:40.827Z,21.30
2018-05-16T08:49:08.556Z,21.40
2018-05-16T08:51:37.061Z,21.50
2018-05-16T08:54:04.800Z,21.50
2018-05-16T08:56:33.308Z,21.60
2018-05-16T08:59:01.064Z,21.60
2018-05-16T09:01:28.800Z,21.70
2018-05-16T09:03:58.133Z,21.90
2018-05-16T09:06:25.864Z,21.80
2018-05-16T09:08:54.357Z,22.00
2018-05-16T09:11:22.861Z,22.10
2018-05-16T09:13:50.609Z,22.00
2018-05-16T09:16:18.337Z,22.20
2018-05-16T09:18:46.120Z,22.20
2018-05-16T09:21:14.656Z,22.40
2018-05-16T09:23:42.385Z,22.30
2018-05-16T09:26:10.129Z,22.40
2018-05-16T09:28:38.623Z,22.70
2018-05-16T09:31:06.344Z,22.70
2018-05-16T09:33:34.072Z,22.70
2018-05-16T09:36:01.800Z,22.80
2018-05-16T09:38:30.347Z,23.10
2018-05-16T09:40:58.116Z,23.10
2018-05-16T09:43:25.893Z,23.30
2018-05-16T09:45:53.676Z,23.40
2018-05-16T09:48:22.170Z,23.40
2018-05-16T09:50:49.932Z,23.40
2018-05-16T09:53:17.672Z,23.40
2018-05-16T09:55:46.178Z,23.60
2018-05-16T09:58:13.935Z,23.50
2018-05-16T10:00:42.441Z,23.80
2018-05-16T10:03:10.213Z,23.80
2018-05-16T10:05:37.962Z,23.90
2018-05-16T10:08:05.724Z,23.90
2018-05-16T10:10:33.479Z,24.10
2018-05-16T10:13:01.300Z,24.20
2018-05-16T10:15:29.057Z,24.20
2018-05-16T10:17:56.850Z,24.30
2018-05-16T10:20:25.373Z,24.60
2018-05-16T10:22:53.131Z,24.60
2018-05-16T10:25:21.633Z,24.80
2018-05-16T10:27:49.390Z,24.80
2018-05-16T10:30:17.135Z,24.80
2018-05-16T10:32:44.893Z,25.00
2018-05-16T10:35:12.616Z,25.00
2018-05-16T10:37:40.365Z,25.00
2018-05-16T10:40:08.129Z,25.00
2018-05-16T10:42:35.869Z,25.10
2018-05-16T10:45:04.413Z,25.30
2018-05-16T10:47:32.903Z,25.20
2018-05-16T10:50:00.643Z,25.20
2018-05-16T10:52:29.182Z,25.40
2018-05-16T10:54:56.932Z,25.30
2018-05-16T10:57:24.788Z,25.40
2018-05-16T10:59:52.471Z,25.60
2018-05-16T11:02:20.193Z,25.80
2018-05-16T11:04:48.697Z,26.00
2018-05-16T11:07:16.425Z,26.00
2018-05-16T11:09:44.933Z,26.10
2018-05-16T11:12:12.687Z,26.00
2018-05-16T11:14:41.180Z,26.20
2018-05-16T11:17:08.959Z,26.20
2018-05-16T11:19:36.700Z,26.40
2018-05-16T11:22:04.480Z,26.40
2018-05-16T11:24:32.222Z,26.40
2018-05-16T11:27:00.736Z,26.50
2018-05-16T11:29:28.466Z,26.50
2018-05-16T11:31:56.953Z,26.40
2018-05-16T11:34:24.684Z,26.40
2018-05-16T11:36:52.418Z,26.50
2018-05-16T11:39:20.197Z,26.60
2018-05-16T11:41:47.959Z,26.60
2018-05-16T11:44:15.697Z,26.60
2018-05-16T11:46:43.416Z,26.60
2018-05-16T11:49:11.926Z,26.60
2018-05-16T11:51:39.668Z,26.50
2018-05-16T11:54:08.189Z,26.60
2018-05-16T11:56:36.417Z,26.60
2018-05-16T11:59:04.924Z,26.40
2018-05-16T12:01:32.654Z,26.40
2018-05-16T12:04:01.217Z,26.30
2018-05-16T12:06:29.772Z,26.20
2018-05-16T12:08:57.528Z,26.20
2018-05-16T12:11:25.346Z,26.10
2018-05-16T12:13:53.101Z,26.10
2018-05-16T12:16:20.926Z,26.10
2018-05-16T12:18:48.702Z,26.00
2018-05-16T12:21:16.443Z,25.90
2018-05-16T12:23:44.182Z,26.00
2018-05-16T12:26:12.705Z,25.90
2018-05-16T12:28:40.456Z,25.80
2018-05-16T12:31:08.249Z,25.80
2018-05-16T12:33:36.010Z,25.70
2018-05-16T12:36:03.940Z,25.70
2018-05-16T12:38:31.704Z,25.60
2018-05-16T12:40:59.503Z,25.50
2018-05-16T12:43:30.338Z,25.50
2018-05-16T12:45:58.097Z,25.50
2018-05-16T12:48:25.878Z,25.50
2018-05-16T12:50:54.403Z,25.50
2018-05-16T12:53:22.249Z,25.40
2018-05-16T12:55:50.059Z,25.30
2018-05-16T12:58:17.840Z,25.20
2018-05-16T13:00:45.636Z,25.40
2018-05-16T13:03:13.367Z,25.30
2018-05-16T13:05:41.114Z,25.30
2018-05-16T13:08:08.848Z,25.30
2018-05-16T13:10:37.405Z,25.30
2018-05-16T13:13:05.251Z,25.20
2018-05-16T13:15:33.001Z,25.30
2018-05-16T13:18:00.828Z,25.20
2018-05-16T13:20:29.238Z,25.30
2018-05-16T13:22:57.013Z,25.20
2018-05-16T13:25:25.517Z,25.20
2018-05-16T13:27:53.290Z,25.20
2018-05-16T13:30:21.020Z,25.20
2018-05-16T13:32:48.760Z,25.10
2018-05-16T13:35:16.673Z,25.10
2018-05-16T13:37:44.489Z,25.10
2018-05-16T13:40:12.224Z,25.00
2018-05-16T13:42:40.719Z,25.00
2018-05-16T13:45:09.230Z,24.90
2018-05-16T13:47:36.971Z,24.90
2018-05-16T13:50:05.479Z,24.90
2018-05-16T13:52:33.975Z,24.80
2018-05-16T13:55:01.694Z,24.80
2018-05-16T13:57:29.432Z,24.70
2018-05-16T13:59:57.164Z,24.70
2018-05-16T14:02:24.891Z,24.70
2018-05-16T14:04:52.609Z,24.80
2018-05-16T14:07:20.338Z,24.70
2018-05-16T14:09:48.076Z,24.70
2018-05-16T14:12:15.952Z,24.70
2018-05-16T14:14:43.859Z,24.70
2018-05-16T14:17:11.582Z,24.70
2018-05-16T14:19:39.328Z,24.50
2018-05-16T14:22:07.860Z,24.50
2018-05-16T14:24:35.633Z,24.50
2018-05-16T14:27:03.390Z,24.40
2018-05-16T14:29:31.113Z,24.40
2018-05-16T14:31:58.837Z,24.40
2018-05-16T14:34:26.564Z,24.30
2018-05-16T14:36:54.320Z,24.30
2018-05-16T14:39:22.164Z,24.20
2018-05-16T14:41:50.644Z,24.20
2018-05-16T14:44:19.143Z,24.20
2018-05-16T14:46:46.886Z,24.20
2018-05-16T14:49:15.375Z,24.10
2018-05-16T14:51:43.130Z,24.10
2018-05-16T14:54:11.636Z,24.10
2018-05-16T14:56:39.406Z,24.10
2018-05-16T14:59:07.149Z,24.10
2018-05-16T15:01:34.874Z,24.10
2018-05-16T15:04:02.605Z,24.10
2018-05-16T15:06:30.327Z,24.10
2018-05-16T15:08:58.804Z,24.10
2018-05-16T15:11:27.296Z,24.00
2018-05-16T15:13:55.014Z,24.00
2018-05-16T15:16:22.750Z,24.10
2018-05-16T15:18:50.465Z,24.00
2018-05-16T15:21:19.032Z,24.00
2018-05-16T15:23:46.716Z,24.00
2018-05-16T15:26:15.196Z,24.10
2018-05-16T15:28:43.681Z,24.00
2018-05-16T15:31:12.168Z,23.90
2018-05-16T15:33:40.652Z,23.90
2018-05-16T15:36:09.148Z,23.90
2018-05-16T15:38:36.864Z,23.90
2018-05-16T15:41:04.617Z,23.90
2018-05-16T15:43:32.351Z,24.00
2018-05-16T15:46:00.601Z,23.90
2018-05-16T15:48:28.325Z,23.90
2018-05-16T15:50:56.056Z,23.90
2018-05-16T15:53:24.560Z,23.90
2018-05-16T15:55:52.344Z,23.90
2018-05-16T15:58:20.150Z,23.90
2018-05-16T16:00:47.870Z,23.90
2018-05-16T16:03:15.586Z,23.90
2018-05-16T16:05:43.375Z,23.90
2018-05-16T16:08:11.169Z,23.90
2018-05-16T16:10:38.917Z,23.90
2018-05-16T16:13:06.683Z,23.80
2018-05-16T16:15:34.468Z,23.80
2018-05-16T16:18:03.009Z,23.70
2018-05-16T16:20:30.741Z,23.70
2018-05-16T16:23:00.617Z,23.70
2018-05-16T16:25:28.448Z,23.70
2018-05-16T16:27:56.264Z,23.70
2018-05-16T16:30:24.756Z,23.60
2018-05-16T16:32:52.558Z,23.60
2018-05-16T16:35:20.277Z,23.60
2018-05-16T16:37:48.802Z,23.60
2018-05-16T16:40:16.552Z,23.60
2018-05-16T16:42:45.035Z,23.60
2018-05-16T16:45:12.757Z,23.60
2018-05-16T16:47:41.236Z,23.60
2018-05-16T16:50:09.846Z,23.50
2018-05-16T16:52:37.520Z,23.50
2018-05-16T16:55:05.249Z,23.60
2018-05-16T16:57:33.753Z,23.50
2018-05-16T17:00:01.595Z,23.50
2018-05-16T17:02:29.247Z,23.60
2018-05-16T17:04:57.825Z,23.50
2018-05-16T17:07:26.373Z,23.50
2018-05-16T17:09:54.101Z,23.50
2018-05-16T17:12:21.821Z,23.40
2018-05-16T17:14:49.558Z,23.40
2018-05-16T17:17:17.344Z,23.40
2018-05-16T17:19:45.065Z,23.40
2018-05-16T17:22:12.784Z,23.30
2018-05-16T17:24:41.268Z,23.30
2018-05-16T17:27:08.977Z,23.30
2018-05-16T17:29:36.744Z,23.30
2018-05-16T17:32:04.829Z,23.30
2018-05-16T17:34:32.548Z,23.30
2018-05-16T17:37:01.077Z,23.20
2018-05-16T17:39:28.867Z,23.20
2018-05-16T17:41:56.599Z,23.10
2018-05-16T17:44:24.309Z,23.10
2018-05-16T17:46:52.799Z,23.10
2018-05-16T17:49:21.330Z,23.10
2018-05-16T17:51:49.052Z,23.10
2018-05-16T17:54:17.545Z,23.10
2018-05-16T17:56:45.270Z,23.10
2018-05-16T17:59:13.896Z,23.00
2018-05-16T18:01:41.669Z,23.00
2018-05-16T18:04:09.397Z,23.00
2018-05-16T18:06:37.923Z,23.00
2018-05-16T18:09:05.681Z,23.00
2018-05-16T18:11:33.403Z,23.00
2018-05-16T18:14:14.326Z,23.00
2018-05-16T18:16:54.042Z,23.00
2018-05-16T18:19:22.521Z,23.00
2018-05-16T18:21:50.244Z,23.00
2018-05-16T18:24:18.134Z,23.00
2018-05-16T18:26:46.688Z,22.90
2018-05-16T18:29:14.542Z,22.90
2018-05-16T18:31:42.304Z,22.90
2018-05-16T18:34:10.135Z,22.90
2018-05-16T18:36:37.897Z,22.80
2018-05-16T18:39:05.672Z,22.80
2018-05-16T18:41:33.629Z,22.80
2018-05-16T18:44:01.415Z,22.90
2018-05-16T18:46:29.294Z,22.80
2018-05-16T18:48:57.032Z,22.80
2018-05-16T18:51:25.626Z,22.80
2018-05-16T18:53:53.341Z,22.70
2018-05-16T18:56:21.845Z,22.70
2018-05-16T18:58:50.491Z,22.70
2018-05-16T19:01:18.212Z,22.70
2018-05-16T19:03:45.958Z,22.70
2018-05-16T19:06:13.692Z,22.80
2018-05-16T19:08:42.256Z,22.70
2018-05-16T19:11:09.952Z,22.70
2018-05-16T19:13:38.466Z,22.70
2018-05-16T19:16:06.181Z,22.70
2018-05-16T19:18:34.696Z,22.60
2018-05-16T19:21:02.421Z,22.60
2018-05-16T19:23:30.192Z,22.60
2018-05-16T19:25:58.704Z,22.60
2018-05-16T19:28:26.422Z,22.60
2018-05-16T19:30:54.178Z,22.60
2018-05-16T19:33:21.919Z,22.60
2018-05-16T19:35:49.662Z,22.60
2018-05-16T19:38:17.389Z,22.60
2018-05-16T19:40:45.904Z,22.60
2018-05-16T19:43:13.671Z,22.60
2018-05-16T19:45:42.178Z,22.60
2018-05-16T19:48:09.953Z,22.60
2018-05-16T19:50:37.668Z,22.60
2018-05-16T19:53:05.412Z,22.60
2018-05-16T19:55:33.917Z,22.60
2018-05-16T19:58:01.650Z,22.60
2018-05-16T20:00:30.183Z,22.50
2018-05-16T20:02:58.033Z,22.60
2018-05-16T20:05:25.764Z,22.60
2018-05-16T20:07:54.307Z,22.50
2018-05-16T20:10:22.041Z,22.50
2018-05-16T20:12:49.805Z,22.50
2018-05-16T20:15:17.584Z,22.50
2018-05-16T20:17:45.308Z,22.50
2018-05-16T20:20:13.816Z,22.50
2018-05-16T20:22:41.544Z,22.40
2018-05-16T20:25:10.037Z,22.50
2018-05-16T20:27:37.785Z,22.50
2018-05-16T20:30:05.517Z,22.50
2018-05-16T20:32:33.299Z,22.40
2018-05-16T20:35:01.021Z,22.50
2018-05-16T20:37:28.784Z,22.40
2018-05-16T20:39:56.544Z,22.50
2018-05-16T20:42:24.253Z,22.50
2018-05-16T20:44:51.976Z,22.40
2018-05-16T20:47:19.706Z,22.40
2018-05-16T20:49:48.185Z,22.40
2018-05-16T20:52:16.665Z,22.40
2018-05-16T20:54:46.253Z,22.40
2018-05-16T20:57:15.147Z,22.40
2018-05-16T20:59:42.929Z,22.30
2018-05-16T21:02:12.773Z,22.30
2018-05-16T21:04:40.499Z,22.30
2018-05-16T21:07:08.999Z,22.30
2018-05-16T21:09:36.714Z,22.30
2018-05-16T21:12:04.461Z,22.30
2018-05-16T21:14:32.188Z,22.30
2018-05-16T21:17:01.000Z,22.30
2018-05-16T21:19:28.733Z,22.30
2018-05-16T21:21:57.211Z,22.30
2018-05-16T21:24:24.955Z,22.20
2018-05-16T21:26:52.729Z,22.30
2018-05-16T21:29:21.208Z,22.20
2018-05-16T21:31:49.719Z,22.20
2018-05-16T21:34:17.440Z,22.20
2018-05-16T21:36:45.149Z,22.20
2018-05-16T21:39:13.271Z,22.20
2018-05-16T21:41:40.994Z,22.10
2018-05-16T21:44:09.545Z,22.10
2018-05-16T21:46:38.074Z,22.10
2018-05-16T21:49:05.805Z,22.10
2018-05-16T21:51:33.572Z,22.10
2018-05-16T21:54:01.377Z,22.10
2018-05-16T21:56:29.106Z,22.10
2018-05-16T21:58:57.601Z,22.10
2018-05-16T22:01:25.330Z,22.10
2018-05-16T22:03:53.834Z,22.10
2018-05-16T22:06:21.560Z,22.10
2018-05-16T22:08:50.070Z,22.10
2018-05-16T22:11:17.865Z,22.10
2018-05-16T22:13:45.608Z,22.00
2018-05-16T22:16:13.352Z,22.10
2018-05-16T22:18:41.197Z,22.10
2018-05-16T22:21:08.989Z,22.00
2018-05-16T22:23:36.737Z,22.00
2018-05-16T22:26:05.249Z,22.00
2018-05-16T22:28:33.001Z,22.00
2018-05-16T22:31:07.079Z,22.00
2018-05-16T22:33:40.331Z,22.00
2018-05-16T22:36:13.768Z,22.00
2018-05-16T22:38:47.827Z,21.90
2018-05-16T22:41:21.124Z,21.90
2018-05-16T22:43:50.716Z,21.90
2018-05-16T22:46:18.528Z,21.90
2018-05-16T22:48:46.277Z,21.90
2018-05-16T22:51:14.056Z,21.80
2018-05-16T22:53:41.789Z,21.80
2018-05-16T22:56:09.650Z,21.90
2018-05-16T22:58:37.397Z,21.90
2018-05-16T23:01:05.196Z,21.80
2018-05-16T23:03:33.016Z,21.80
2018-05-16T23:06:01.512Z,21.80
2018-05-16T23:08:30.068Z,21.90
2018-05-16T23:10:58.677Z,21.90
2018-05-16T23:13:26.541Z,21.90
2018-05-16T23:15:54.273Z,21.90
2018-05-16T23:18:22.840Z,21.80
2018-05-16T23:20:50.560Z,21.80
2018-05-16T23:23:18.308Z,21.80
2018-05-16T23:25:46.041Z,21.80
2018-05-16T23:28:13.787Z,21.80
2018-05-16T23:30:41.529Z,21.80
2018-05-16T23:33:09.657Z,21.80
2018-05-16T23:35:38.164Z,21.70
2018-05-16T23:38:06.656Z,21.70
2018-05-16T23:40:34.392Z,21.70
2018-05-16T23:43:02.129Z,21.70
2018-05-16T23:45:29.876Z,21.70
2018-05-16T23:47:57.605Z,21.70
2018-05-16T23:50:25.357Z,21.70
2018-05-16T23:52:53.109Z,21.60
2018-05-16T23:55:22.892Z,21.60
2018-05-16T23:57:50.625Z,21.60
